Time;durP1;ratioP1;P1;durP2;ratioP2;P2;SDS_P1;SDS_P2;PMS_P1;PMS_P2;Temp;Humidity;BMP_temperature;BMP_pressure;BME280_temperature;BME280_humidity;BME280_pressure;Samples;Min_cycle;Max_cycle;Signal;HPM_P1;HPM_P2
2023/12/11 00:02:07;;;;;;;1.77;1.67;;;;;;;20.29;46.95;96466.53;4938806;28;20517;-27
2023/12/11 00:04:34;;;;;;;2.07;1.90;;;;;;;20.30;47.16;96462.28;4948143;28;20278;-26
2023/12/11 00:07:00;;;;;;;1.50;1.40;;;;;;;20.30;47.34;96463.16;4942950;28;20638;-26
2023/12/11 00:09:27;;;;;;;2.13;1.70;;;;;;;20.31;46.96;96464.00;4944113;28;20226;-26
2023/12/11 00:11:54;;;;;;;1.80;1.70;;;;;;;20.31;47.22;96469.94;4951043;28;20219;-26
2023/12/11 00:14:20;;;;;;;2.10;1.60;;;;;;;20.31;47.21;96461.47;4943310;28;20240;-28
2023/12/11 00:16:47;;;;;;;2.00;1.53;;;;;;;20.32;46.69;96471.69;4951617;28;20243;-26
2023/12/11 00:19:14;;;;;;;1.70;1.60;;;;;;;20.32;47.12;96466.59;4953874;28;20232;-26
2023/12/11 00:21:41;;;;;;;1.53;1.43;;;;;;;20.32;46.92;96471.69;4949308;28;20216;-27
2023/12/11 00:24:07;;;;;;;1.90;1.80;;;;;;;20.31;47.14;96467.41;4938527;28;20464;-26
2023/12/11 00:26:34;;;;;;;1.50;1.40;;;;;;;20.33;47.22;96475.09;4954837;28;20208;-28
2023/12/11 00:29:01;;;;;;;1.57;1.47;;;;;;;20.34;47.17;96479.38;4953747;28;20268;-27
2023/12/11 00:31:27;;;;;;;1.60;1.50;;;;;;;20.33;47.00;96475.09;4952186;28;20215;-26
2023/12/11 00:33:54;;;;;;;1.90;1.80;;;;;;;20.35;47.82;96468.31;4955419;28;20212;-27
2023/12/11 00:36:21;;;;;;;1.70;1.60;;;;;;;20.35;47.12;96466.63;4943097;28;20216;-28
2023/12/11 00:38:47;;;;;;;1.73;1.63;;;;;;;20.36;47.06;96467.47;4946321;28;20235;-26
2023/12/11 00:41:17;;;;;;;1.70;1.60;;;;;;;20.36;47.02;96465.81;4949081;28;20212;-26
2023/12/11 00:43:44;;;;;;;1.60;1.50;;;;;;;20.34;47.33;96464.91;4952234;28;20624;-26
2023/12/11 00:46:21;;;;;;;1.60;1.50;;;;;;;20.32;47.36;96476.78;4945821;28;20260;-26
2023/12/11 00:48:48;;;;;;;1.80;1.70;;;;;;;20.31;47.12;96485.25;4947397;28;20284;-35
2023/12/11 00:51:16;;;;;;;1.53;1.43;;;;;;;20.30;47.30;96481.00;4952823;28;20235;-26
2023/12/11 00:53:43;;;;;;;1.60;1.50;;;;;;;20.22;47.16;96469.78;4934608;28;20215;-26
2023/12/11 00:56:09;;;;;;;1.60;1.50;;;;;;;20.31;47.14;96490.38;4949101;28;20232;-29
2023/12/11 00:58:36;;;;;;;1.50;1.40;;;;;;;20.32;47.27;96497.22;4950593;28;20216;-28
2023/12/11 01:01:03;;;;;;;1.60;1.50;;;;;;;20.32;47.11;96499.75;4951742;28;20314;-29
2023/12/11 01:03:30;;;;;;;1.53;1.43;;;;;;;20.32;47.15;96496.34;4954677;28;20295;-29
2023/12/11 01:05:56;;;;;;;1.43;1.33;;;;;;;20.33;47.20;96490.38;4949858;28;20266;-26
2023/12/11 01:08:27;;;;;;;1.73;1.60;;;;;;;20.32;47.24;96487.00;4942543;28;20228;-26
2023/12/11 01:10:54;;;;;;;1.83;1.67;;;;;;;20.26;47.14;96481.78;4947897;28;20219;-29
2023/12/11 01:13:22;;;;;;;1.60;1.50;;;;;;;20.33;46.67;96492.94;4931162;29;20212;-29
2023/12/11 01:15:48;;;;;;;1.50;1.40;;;;;;;20.33;47.23;96491.25;4944213;28;20204;-29
2023/12/11 01:18:15;;;;;;;1.63;1.53;;;;;;;20.34;47.20;96462.34;4942916;28;20236;-26
2023/12/11 01:20:42;;;;;;;1.60;1.50;;;;;;;20.35;47.26;96448.78;4941369;28;20208;-26
2023/12/11 01:23:08;;;;;;;1.70;1.60;;;;;;;20.35;47.16;96448.78;4941355;28;20217;-38
2023/12/11 01:25:35;;;;;;;1.47;1.37;;;;;;;20.36;46.94;96447.94;4937441;28;20237;-27
2023/12/11 01:28:02;;;;;;;1.50;1.40;;;;;;;20.35;47.44;96459.00;4938984;28;20609;-27
2023/12/11 01:30:28;;;;;;;1.70;1.60;;;;;;;20.09;47.28;96403.19;4946673;28;20698;-26
2023/12/11 01:32:55;;;;;;;1.50;1.40;;;;;;;20.36;46.98;96458.16;4947192;28;20209;-30
2023/12/11 01:35:22;;;;;;;1.50;1.40;;;;;;;20.38;46.85;96463.28;4950878;28;20237;-26
2023/12/11 01:37:48;;;;;;;1.60;1.50;;;;;;;20.36;47.21;96490.44;4946658;28;20280;-29
2023/12/11 01:40:15;;;;;;;1.50;1.40;;;;;;;20.34;47.05;96512.53;4959752;28;20200;-29
2023/12/11 01:42:42;;;;;;;1.43;1.33;;;;;;;20.32;47.15;96529.50;4950260;28;20678;-27
2023/12/11 01:45:09;;;;;;;1.60;1.50;;;;;;;20.31;47.31;96531.19;4952538;28;20208;-26
2023/12/11 01:47:35;;;;;;;1.60;1.50;;;;;;;20.31;47.23;96540.56;4947323;28;20224;-32
2023/12/11 01:50:03;;;;;;;1.50;1.40;;;;;;;20.32;47.20;96538.03;4917426;28;20227;-26
2023/12/11 01:52:29;;;;;;;1.70;1.60;;;;;;;20.33;47.28;96526.13;4943629;28;20208;-27
2023/12/11 01:54:56;;;;;;;1.60;1.50;;;;;;;20.32;47.37;96520.16;4952828;28;20738;-27
2023/12/11 01:57:23;;;;;;;1.80;1.70;;;;;;;20.31;47.22;96520.97;4947023;28;20232;-26
2023/12/11 01:59:49;;;;;;;1.53;1.43;;;;;;;20.34;47.04;96515.09;4909783;29;20630;-26
2023/12/11 02:02:16;;;;;;;1.50;1.40;;;;;;;20.32;47.44;96509.97;4956815;28;20200;-28
2023/12/11 02:04:43;;;;;;;1.40;1.30;;;;;;;20.33;47.14;96509.13;4953613;28;20235;-26
2023/12/11 02:07:10;;;;;;;1.60;1.50;;;;;;;20.33;47.53;96524.44;4936465;29;20234;-26
2023/12/11 02:09:36;;;;;;;1.50;1.40;;;;;;;20.34;47.18;96526.13;4955899;28;20308;-26
2023/12/11 02:12:03;;;;;;;1.57;1.47;;;;;;;20.35;47.19;96524.47;4944968;28;20203;-26
2023/12/11 02:14:30;;;;;;;1.50;1.40;;;;;;;20.36;47.21;96526.16;4954806;28;20201;-28
2023/12/11 02:16:57;;;;;;;1.40;1.30;;;;;;;20.37;47.11;96535.56;4936224;29;20295;-28
2023/12/11 02:19:24;;;;;;;1.60;1.50;;;;;;;20.36;46.94;96546.59;4950040;28;20200;-30
2023/12/11 02:21:52;;;;;;;1.60;1.50;;;;;;;20.37;46.99;96543.22;4944390;28;20585;-29
2023/12/11 02:24:21;;;;;;;1.47;1.37;;;;;;;20.35;47.22;96530.44;4916303;29;20200;-27
2023/12/11 02:26:48;;;;;;;1.50;1.40;;;;;;;20.38;47.09;96534.72;4915577;28;20204;-30
2023/12/11 02:29:15;;;;;;;1.40;1.30;;;;;;;20.38;47.34;96529.63;4950239;28;20239;-35
2023/12/11 02:31:41;;;;;;;1.70;1.40;;;;;;;20.35;47.00;96532.97;4950442;28;20216;-26
2023/12/11 02:34:08;;;;;;;1.80;1.40;;;;;;;20.34;47.18;96522.75;4951844;28;20204;-26
2023/12/11 02:36:35;;;;;;;1.97;1.50;;;;;;;20.32;47.37;96529.50;4948750;28;20208;-37
2023/12/11 02:39:02;;;;;;;1.40;1.30;;;;;;;20.32;47.05;96534.59;4950498;28;20601;-28
2023/12/11 02:41:29;;;;;;;1.50;1.40;;;;;;;20.31;47.33;96543.09;4941523;28;20236;-27
2023/12/11 02:43:57;;;;;;;1.73;1.53;;;;;;;20.32;47.13;96547.38;4942722;28;20228;-27
2023/12/11 02:46:24;;;;;;;1.40;1.30;;;;;;;20.33;47.15;96541.41;4944549;28;20674;-27
2023/12/11 02:48:50;;;;;;;1.50;1.40;;;;;;;20.33;47.20;96529.53;4958718;28;20334;-26
2023/12/11 02:51:17;;;;;;;1.40;1.30;;;;;;;20.32;47.17;96520.16;4942395;28;20208;-26
2023/12/11 02:53:45;;;;;;;1.33;1.23;;;;;;;20.34;47.59;96512.53;4942575;28;20731;-29
2023/12/11 02:56:12;;;;;;;1.50;1.40;;;;;;;20.33;47.22;96506.56;4946252;28;20204;-26
2023/12/11 02:58:38;;;;;;;1.60;1.50;;;;;;;20.33;46.67;96487.84;4951289;28;20228;-29
2023/12/11 03:01:05;;;;;;;1.53;1.43;;;;;;;20.33;47.28;96486.16;4953025;28;20193;-27
2023/12/11 03:03:32;;;;;;;1.77;1.43;;;;;;;20.33;47.71;96503.16;4950267;28;20212;-26
2023/12/11 03:06:00;;;;;;;1.50;1.40;;;;;;;20.34;47.01;96513.38;4950396;28;20200;-30
2023/12/11 03:08:27;;;;;;;1.40;1.30;;;;;;;20.35;47.43;96529.56;4943871;29;20756;-26
2023/12/11 03:10:53;;;;;;;1.20;1.20;;;;;;;20.34;47.26;96530.41;4945691;28;20358;-27
2023/12/11 03:13:20;;;;;;;1.53;1.43;;;;;;;20.35;47.94;96534.66;4952346;28;20672;-26
2023/12/11 03:15:46;;;;;;;1.97;1.53;;;;;;;20.36;47.31;96532.13;4958422;28;20263;-26
2023/12/11 03:18:13;;;;;;;1.30;1.20;;;;;;;20.36;46.92;96531.28;4952649;28;20228;-26
2023/12/11 03:20:39;;;;;;;1.50;1.40;;;;;;;20.36;47.17;96538.94;4949229;29;20255;-26
2023/12/11 03:23:06;;;;;;;1.57;1.40;;;;;;;20.35;47.19;96538.09;4941087;28;20200;-26
2023/12/11 03:25:33;;;;;;;1.30;1.20;;;;;;;20.32;47.38;96542.25;4954207;28;20212;-26
2023/12/11 03:27:59;;;;;;;1.53;1.43;;;;;;;20.31;47.21;96533.75;4947013;28;20231;-27
2023/12/11 03:30:26;;;;;;;1.60;1.50;;;;;;;20.29;47.24;96540.53;4947300;29;20224;-26
2023/12/11 03:32:52;;;;;;;1.33;1.23;;;;;;;20.30;47.43;96543.91;4952572;28;20527;-26
2023/12/11 03:35:19;;;;;;;1.37;1.23;;;;;;;20.23;47.34;96537.84;4953615;28;20239;-29
2023/12/11 03:37:46;;;;;;;1.30;1.20;;;;;;;20.32;47.18;96534.59;4960232;28;20228;-26
2023/12/11 03:40:12;;;;;;;1.47;1.37;;;;;;;20.31;47.12;96546.50;4958595;28;20212;-29
2023/12/11 03:42:39;;;;;;;1.40;1.30;;;;;;;20.31;47.39;96543.94;4944722;28;20216;-26
2023/12/11 03:45:06;;;;;;;1.40;1.30;;;;;;;20.31;47.38;96543.94;4943751;28;20205;-27
2023/12/11 03:47:33;;;;;;;1.30;1.20;;;;;;;20.33;47.15;96536.31;4952508;28;20223;-26
2023/12/11 03:50:00;;;;;;;1.40;1.33;;;;;;;20.32;47.09;96532.94;4949284;29;20713;-30
2023/12/11 03:52:26;;;;;;;1.27;1.20;;;;;;;20.32;47.49;96538.03;4947248;28;20208;-27
2023/12/11 03:54:53;;;;;;;1.30;1.20;;;;;;;20.27;47.33;96526.88;4952592;28;20295;-26
2023/12/11 03:57:20;;;;;;;1.30;1.20;;;;;;;20.32;46.95;96525.28;4949538;28;20479;-26
2023/12/11 03:59:46;;;;;;;1.43;1.37;;;;;;;20.33;47.75;96521.88;4954217;28;20208;-28
2023/12/11 04:02:13;;;;;;;1.20;1.10;;;;;;;20.34;47.45;96528.69;4957019;28;20204;-27
2023/12/11 04:04:40;;;;;;;1.30;1.20;;;;;;;20.34;47.21;96545.72;4964581;28;20200;-26
2023/12/11 04:07:07;;;;;;;1.27;1.10;;;;;;;20.35;47.19;96542.31;4959715;28;20215;-29
2023/12/11 04:09:33;;;;;;;1.40;1.30;;;;;;;20.34;47.25;96541.44;4957137;28;20219;-26
2023/12/11 04:12:00;;;;;;;3.77;1.40;;;;;;;20.35;47.38;96543.19;4954378;28;20710;-26
2023/12/11 04:14:27;;;;;;;1.50;1.40;;;;;;;20.38;47.10;96529.63;4954392;28;20224;-26
2023/12/11 04:16:53;;;;;;;1.27;1.13;;;;;;;20.36;47.20;96519.38;4960935;28;20215;-26
2023/12/11 04:19:20;;;;;;;1.40;1.30;;;;;;;20.35;47.33;96521.91;4953899;28;20208;-26
2023/12/11 04:21:47;;;;;;;1.33;1.23;;;;;;;20.32;47.17;96522.72;4954506;28;20296;-26
2023/12/11 04:24:13;;;;;;;1.40;1.30;;;;;;;20.32;47.36;96515.06;4961209;28;20309;-31
2023/12/11 04:26:41;;;;;;;1.40;1.30;;;;;;;20.31;47.37;96523.53;4963087;28;20292;-28
2023/12/11 04:29:08;;;;;;;1.30;1.20;;;;;;;20.32;47.13;96521.84;4959827;28;20224;-27
2023/12/11 04:31:35;;;;;;;1.30;1.20;;;;;;;20.33;47.12;96518.47;4958430;28;20290;-26
2023/12/11 04:34:01;;;;;;;1.50;1.40;;;;;;;20.33;47.28;96516.78;4964215;28;20231;-26
2023/12/11 04:36:28;;;;;;;1.10;1.10;;;;;;;20.33;47.39;96515.91;4960005;28;20228;-27
2023/12/11 04:38:55;;;;;;;1.40;1.30;;;;;;;20.34;47.21;96525.31;4948409;28;20225;-26
2023/12/11 04:41:22;;;;;;;1.10;1.10;;;;;;;20.33;47.29;96529.53;4945647;28;20694;-26
2023/12/11 04:43:48;;;;;;;1.00;1.00;;;;;;;20.32;47.08;96525.28;4949327;28;20208;-27
2023/12/11 04:46:15;;;;;;;1.50;1.40;;;;;;;20.33;47.39;96526.97;4952090;29;20212;-27
2023/12/11 04:48:41;;;;;;;1.33;1.30;;;;;;;20.33;46.96;96534.63;4947203;28;20315;-26
2023/12/11 04:51:08;;;;;;;1.17;1.17;;;;;;;20.33;47.21;96524.44;4953577;28;20220;-26
2023/12/11 04:53:35;;;;;;;1.30;1.20;;;;;;;20.35;47.21;96527.88;4941427;28;20283;-29
2023/12/11 04:56:06;;;;;;;1.50;1.40;;;;;;;20.35;47.24;96514.25;4943662;28;20637;-26
2023/12/11 04:58:32;;;;;;;1.30;1.20;;;;;;;20.37;47.22;96512.59;4954350;28;20228;-26
2023/12/11 05:00:59;;;;;;;1.27;1.20;;;;;;;20.37;47.34;96503.22;4943762;28;20318;-27
2023/12/11 05:03:26;;;;;;;1.30;1.20;;;;;;;20.36;47.03;96504.06;4953630;28;20660;-26
2023/12/11 05:05:52;;;;;;;1.40;1.30;;;;;;;20.39;47.21;96500.72;4952805;28;20263;-26
2023/12/11 05:08:19;;;;;;;1.17;1.10;;;;;;;20.39;47.01;96488.81;4958206;28;20224;-29
2023/12/11 05:10:45;;;;;;;1.40;1.30;;;;;;;20.37;47.09;96487.91;4945702;28;20310;-30
2023/12/11 05:13:12;;;;;;;1.17;1.17;;;;;;;20.33;47.28;96480.19;4958099;28;20291;-26
2023/12/11 05:15:39;;;;;;;1.40;1.30;;;;;;;20.34;47.51;96484.47;4945186;29;20201;-26
2023/12/11 05:18:05;;;;;;;1.20;1.17;;;;;;;20.33;47.36;96482.75;4956371;28;20223;-29
2023/12/11 05:20:32;;;;;;;1.20;1.20;;;;;;;20.33;46.89;96472.53;4953418;28;20209;-27
2023/12/11 05:22:59;;;;;;;1.10;1.10;;;;;;;20.33;47.58;96470.84;4951696;28;20209;-26
2023/12/11 05:25:25;;;;;;;1.20;1.20;;;;;;;20.34;47.19;96477.66;4953369;28;20196;-28
2023/12/11 05:27:52;;;;;;;1.07;1.07;;;;;;;20.34;47.38;96476.81;4957327;28;20267;-29
2023/12/11 05:30:19;;;;;;;1.20;1.20;;;;;;;20.33;47.36;96481.06;4958581;28;20220;-27
2023/12/11 05:32:49;;;;;;;1.30;1.20;;;;;;;20.33;47.35;96481.06;4948807;28;20200;-30
2023/12/11 05:35:16;;;;;;;1.53;1.17;;;;;;;20.33;47.39;96488.72;4954246;29;20667;-29
2023/12/11 05:37:43;;;;;;;1.10;1.10;;;;;;;20.35;47.22;96493.84;4946660;28;20235;-28
2023/12/11 05:40:10;;;;;;;1.20;1.20;;;;;;;20.34;47.33;96504.88;4954351;28;20196;-26
2023/12/11 05:42:49;;;;;;;1.30;1.20;;;;;;;20.36;47.26;96518.50;4955646;29;20204;-26
2023/12/11 05:45:16;;;;;;;1.10;1.10;;;;;;;20.36;47.23;96514.28;4955692;28;20210;-26
2023/12/11 05:47:43;;;;;;;1.27;1.17;;;;;;;20.36;47.08;96506.63;4945185;28;20251;-27
2023/12/11 05:50:10;;;;;;;1.10;1.10;;;;;;;20.38;47.36;96511.75;4951674;28;20288;-26
2023/12/11 05:52:36;;;;;;;1.20;1.20;;;;;;;20.38;47.50;96509.19;4945191;28;20240;-26
2023/12/11 05:55:03;;;;;;;1.30;1.20;;;;;;;20.37;47.20;96498.13;4943443;28;20209;-26
2023/12/11 05:57:30;;;;;;;1.13;1.13;;;;;;;20.40;46.83;96502.44;4942426;29;20425;-26
2023/12/11 05:59:57;;;;;;;1.10;1.10;;;;;;;20.40;47.26;96505.00;4947286;28;20291;-25
2023/12/11 06:02:24;;;;;;;1.40;1.30;;;;;;;20.33;46.97;96496.38;4944507;28;20723;-26
2023/12/11 06:04:51;;;;;;;1.10;1.10;;;;;;;20.38;47.41;96517.72;4957229;28;20440;-25
2023/12/11 06:07:18;;;;;;;1.23;1.13;;;;;;;20.35;47.39;96512.56;4944993;28;20229;-24
2023/12/11 06:09:45;;;;;;;1.27;1.23;;;;;;;20.36;47.32;96521.06;4953775;28;20306;-26
2023/12/11 06:12:11;;;;;;;1.10;1.10;;;;;;;20.36;47.30;96523.63;4956236;28;20280;-25
2023/12/11 06:14:41;;;;;;;1.80;1.27;;;;;;;20.34;47.30;96528.69;4944355;28;20284;-25
2023/12/11 06:17:14;;;;;;;2.10;1.20;;;;;;;20.37;47.58;96518.53;4946652;28;20302;-25
2023/12/11 06:19:42;;;;;;;1.10;1.10;;;;;;;20.40;47.49;96505.00;4945308;28;20711;-24
2023/12/11 06:22:09;;;;;;;3.83;1.47;;;;;;;20.42;47.45;96516.06;4951809;28;20236;-25
2023/12/11 06:24:38;;;;;;;1.23;1.17;;;;;;;20.43;47.10;96511.00;4950890;28;20211;-25
2023/12/11 06:27:05;;;;;;;1.00;1.00;;;;;;;20.43;47.02;96511.00;4948257;28;20212;-25
2023/12/11 06:29:31;;;;;;;1.93;1.30;;;;;;;20.45;47.32;96499.13;4949406;28;20726;-26
2023/12/11 06:31:58;;;;;;;1.30;1.20;;;;;;;20.42;47.10;96493.97;4942786;29;20315;-25
2023/12/11 06:34:24;;;;;;;1.23;1.23;;;;;;;20.38;47.14;96484.56;4944060;28;20260;-26
2023/12/11 06:36:51;;;;;;;1.27;1.20;;;;;;;20.38;47.09;96501.53;4949745;28;20209;-25
2023/12/11 06:39:19;;;;;;;1.37;1.20;;;;;;;20.37;47.05;96487.91;4942818;28;20200;-25
2023/12/11 06:41:46;;;;;;;1.20;1.20;;;;;;;20.35;47.25;96479.41;4942305;29;20249;-25
2023/12/11 06:44:12;;;;;;;1.40;1.30;;;;;;;20.34;47.20;96476.81;4941898;28;20201;-25
2023/12/11 06:46:39;;;;;;;1.40;1.30;;;;;;;20.33;47.38;96468.31;4943075;28;20204;-24
2023/12/11 06:49:06;;;;;;;1.13;1.13;;;;;;;20.33;46.93;96470.84;4945286;28;20279;-26
2023/12/11 06:51:34;;;;;;;1.37;1.27;;;;;;;20.34;46.94;96474.28;4943186;28;20312;-25
2023/12/11 06:54:01;;;;;;;1.33;1.23;;;;;;;20.34;47.18;96476.81;4950386;28;20790;-25
2023/12/11 06:56:31;;;;;;;1.30;1.20;;;;;;;20.34;47.22;96481.94;4948926;28;20213;-25
2023/12/11 06:58:58;;;;;;;1.47;1.37;;;;;;;20.34;47.29;96489.59;4947310;28;20238;-25
2023/12/11 07:01:33;;;;;;;1.30;1.20;;;;;;;20.36;47.19;96491.31;4957513;28;20235;-25
2023/12/11 07:04:00;;;;;;;2.20;1.33;;;;;;;20.39;47.47;96483.72;4937026;28;20232;-25
2023/12/11 07:06:27;;;;;;;1.40;1.30;;;;;;;20.39;47.12;96476.06;4945383;29;20196;-25
2023/12/11 07:08:54;;;;;;;1.50;1.40;;;;;;;20.42;47.28;96483.75;4950204;28;20228;-25
2023/12/11 07:11:21;;;;;;;1.50;1.40;;;;;;;20.44;47.35;96463.38;4944397;29;20224;-25
2023/12/11 07:13:47;;;;;;;2.10;1.60;;;;;;;20.44;47.27;96465.94;4960799;28;20208;-25
2023/12/11 07:16:15;;;;;;;2.77;1.43;;;;;;;20.43;47.06;96465.06;4949445;28;20238;-26
2023/12/11 07:18:42;;;;;;;1.30;1.20;;;;;;;20.43;47.30;96465.06;4945686;28;20327;-26
2023/12/11 07:21:09;;;;;;;1.43;1.33;;;;;;;20.47;46.98;96459.19;4955303;28;20300;-25
2023/12/11 07:23:36;;;;;;;4.43;2.03;;;;;;;20.52;46.53;96470.31;4948059;28;20239;-25
2023/12/11 07:26:10;;;;;;;3.13;2.07;;;;;;;20.58;46.08;96467.03;4939238;28;20200;-25
2023/12/11 07:28:37;;;;;;;2.70;2.20;;;;;;;20.55;46.14;96462.75;4950449;28;20621;-25
2023/12/11 07:31:04;;;;;;;2.57;2.10;;;;;;;20.51;46.36;96463.50;4953053;28;20352;-25
2023/12/11 07:33:32;;;;;;;2.80;1.90;;;;;;;20.54;46.09;96460.16;4951464;28;20292;-25
2023/12/11 07:35:59;;;;;;;3.97;1.90;;;;;;;20.55;46.03;96449.09;4957100;28;20635;-25
2023/12/11 07:38:25;;;;;;;2.10;1.90;;;;;;;20.52;46.21;96449.06;4949102;29;20224;-25
2023/12/11 07:40:54;;;;;;;2.80;2.13;;;;;;;20.51;46.16;96443.09;4954348;28;20205;-25
2023/12/11 07:43:20;;;;;;;1.87;1.70;;;;;;;20.51;46.05;96447.31;4956406;28;20204;-25
2023/12/11 07:45:48;;;;;;;2.23;1.60;;;;;;;20.50;46.21;96461.78;4948353;28;20224;-25
2023/12/11 07:48:15;;;;;;;2.00;1.80;;;;;;;20.49;46.17;96462.59;4941445;28;20293;-25
2023/12/11 07:50:41;;;;;;;1.83;1.73;;;;;;;20.50;46.06;96471.13;4945399;28;20227;-24
2023/12/11 07:53:08;;;;;;;1.77;1.67;;;;;;;20.48;46.38;96470.25;4937981;29;20680;-25
2023/12/11 07:55:37;;;;;;;1.70;1.60;;;;;;;20.50;46.18;96473.69;4946941;28;20662;-25
2023/12/11 07:58:04;;;;;;;1.70;1.60;;;;;;;20.49;46.03;96471.97;4947154;28;20248;-25
2023/12/11 08:00:32;;;;;;;2.57;1.80;;;;;;;20.50;46.05;96466.03;4944281;28;20208;-25
2023/12/11 08:02:58;;;;;;;1.60;1.50;;;;;;;20.51;46.34;96466.06;4952246;28;20208;-25
2023/12/11 08:05:25;;;;;;;1.80;1.70;;;;;;;20.50;46.09;96464.34;4943068;28;20248;-25
2023/12/11 08:07:52;;;;;;;1.70;1.60;;;;;;;20.52;46.18;96449.91;4943500;28;20243;-24
2023/12/11 08:10:19;;;;;;;2.10;1.90;;;;;;;20.51;45.95;96429.44;4939758;29;20264;-25
2023/12/11 08:12:52;;;;;;;1.60;1.50;;;;;;;20.53;46.02;96432.91;4949164;28;20201;-26
2023/12/11 08:15:19;;;;;;;1.63;1.43;;;;;;;20.53;46.22;96436.31;4943998;29;20473;-25
2023/12/11 08:17:46;;;;;;;1.60;1.50;;;;;;;20.53;45.94;96441.44;4953205;28;20228;-25
2023/12/11 08:20:16;;;;;;;2.20;1.60;;;;;;;20.54;46.16;96444.84;4948543;28;20299;-25
2023/12/11 08:22:44;;;;;;;1.73;1.60;;;;;;;20.53;46.18;96443.97;4954303;28;20662;-25
2023/12/11 08:25:11;;;;;;;1.60;1.50;;;;;;;20.51;45.95;96440.53;4958120;28;20239;-26
2023/12/11 08:27:39;;;;;;;2.80;1.67;;;;;;;20.53;46.02;96440.56;4949980;28;20274;-26
2023/12/11 08:30:06;;;;;;;1.67;1.57;;;;;;;20.53;46.19;96443.09;4954886;28;20300;-26
2023/12/11 08:32:33;;;;;;;3.60;1.70;;;;;;;20.53;46.16;96435.44;4952636;28;20311;-25
2023/12/11 08:35:03;;;;;;;1.50;1.40;;;;;;;20.53;46.15;96433.78;4953895;29;20205;-25
2023/12/11 08:37:30;;;;;;;1.50;1.40;;;;;;;20.50;46.34;96428.63;4952226;28;20223;-25
2023/12/11 08:39:57;;;;;;;1.77;1.60;;;;;;;20.52;46.68;96438.84;4947825;28;20211;-24
2023/12/11 08:42:24;;;;;;;1.50;1.40;;;;;;;20.52;46.13;96423.53;4952537;28;20204;-24
2023/12/11 08:44:50;;;;;;;1.87;1.50;;;;;;;20.51;46.80;96424.34;4946273;28;20213;-24
2023/12/11 08:47:17;;;;;;;2.00;1.60;;;;;;;20.51;46.33;96409.91;4949670;28;20224;-25
2023/12/11 08:49:43;;;;;;;1.60;1.50;;;;;;;20.51;46.12;96393.72;4943035;28;20629;-25
2023/12/11 08:52:10;;;;;;;2.20;1.40;;;;;;;20.52;46.42;96378.44;4941212;28;20609;-25
2023/12/11 08:54:37;;;;;;;1.63;1.40;;;;;;;20.51;46.47;96379.28;4949011;28;20584;-25
2023/12/11 08:57:03;;;;;;;1.50;1.40;;;;;;;20.53;46.42;96392.06;4943876;28;20308;-25
2023/12/11 08:59:32;;;;;;;1.67;1.57;;;;;;;20.43;46.45;96401.25;4949076;28;20272;-25
2023/12/11 09:01:58;;;;;;;1.50;1.40;;;;;;;20.53;46.10;96443.97;4944742;28;20543;-25
2023/12/11 09:04:25;;;;;;;1.60;1.50;;;;;;;20.53;46.29;96466.09;4945069;28;20200;-25
2023/12/11 09:06:52;;;;;;;1.70;1.60;;;;;;;20.58;46.16;96469.56;4948947;28;20215;-25
2023/12/11 09:09:19;;;;;;;2.40;2.20;;;;;;;20.60;45.86;96462.81;4948473;28;20205;-25
2023/12/11 09:11:46;;;;;;;2.20;2.00;;;;;;;20.60;45.97;96462.81;4953758;28;20227;-23
2023/12/11 09:14:13;;;;;;;2.50;2.10;;;;;;;20.59;45.60;96450.88;4944099;28;20220;-24
2023/12/11 09:16:39;;;;;;;1.83;1.70;;;;;;;20.57;45.99;96438.06;4943138;29;20251;-25
2023/12/11 09:19:06;;;;;;;2.77;2.23;;;;;;;20.57;46.41;96452.56;4949244;28;20971;-25
2023/12/11 09:21:32;;;;;;;1.63;1.53;;;;;;;20.55;46.16;96444.88;4951730;28;20209;-25
2023/12/11 09:23:59;;;;;;;2.23;2.03;;;;;;;20.54;46.07;96442.31;4953248;28;20256;-25
2023/12/11 09:26:26;;;;;;;2.60;1.97;;;;;;;20.54;46.34;96442.31;4947168;28;20651;-25
2023/12/11 09:28:53;;;;;;;2.13;1.93;;;;;;;20.53;45.93;96436.31;4952400;28;20228;-25
2023/12/11 09:31:20;;;;;;;2.43;1.90;;;;;;;20.52;46.20;96431.19;4933755;28;20216;-24
2023/12/11 09:33:47;;;;;;;1.90;1.70;;;;;;;20.53;46.26;96426.13;4948939;28;20326;-25
2023/12/11 09:36:14;;;;;;;1.67;1.57;;;;;;;20.52;46.50;96431.19;4955313;28;20231;-25
2023/12/11 09:38:42;;;;;;;2.30;1.80;;;;;;;20.51;46.18;96414.16;4955314;28;20227;-25
2023/12/11 09:41:09;;;;;;;1.83;1.67;;;;;;;20.55;46.16;96404.03;4947263;28;20252;-25
2023/12/11 09:43:36;;;;;;;1.80;1.70;;;;;;;20.56;46.28;96403.19;4947463;28;20275;-25
2023/12/11 09:46:06;;;;;;;1.70;1.60;;;;;;;20.57;45.95;96397.25;4951542;28;20239;-24
2023/12/11 09:48:32;;;;;;;8.63;3.90;;;;;;;20.56;46.04;96364.91;4925570;29;20236;-25
2023/12/11 09:51:00;;;;;;;1.83;1.70;;;;;;;20.51;46.41;96396.28;4925696;29;21067;-25
2023/12/11 09:53:28;;;;;;;2.10;1.80;;;;;;;20.47;46.39;96404.72;4949073;28;20294;-25
2023/12/11 09:55:55;;;;;;;2.57;2.03;;;;;;;20.45;46.43;96406.38;4928092;29;20651;-23
2023/12/11 09:58:21;;;;;;;2.07;1.70;;;;;;;20.43;46.39;96355.34;4926911;29;20365;-24
2023/12/11 10:00:48;;;;;;;4.77;2.87;;;;;;;20.49;46.32;96378.38;4951243;28;20262;-26
2023/12/11 10:03:15;;;;;;;2.17;1.83;;;;;;;20.50;46.56;96392.03;4906886;28;20335;-25
2023/12/11 10:05:42;;;;;;;3.80;3.00;;;;;;;20.48;46.19;96386.03;4948033;28;20212;-25
2023/12/11 10:08:10;;;;;;;4.63;2.67;;;;;;;20.48;46.35;96397.09;4944646;28;20225;-25
2023/12/11 10:10:38;;;;;;;6.03;3.00;;;;;;;20.42;46.19;96389.34;4944103;28;20207;-26
2023/12/11 10:13:05;;;;;;;4.63;3.00;;;;;;;20.47;45.99;96415.81;4923228;28;20216;-25
2023/12/11 10:15:33;;;;;;;4.37;2.60;;;;;;;20.49;46.27;96420.94;4939710;28;20617;-25
2023/12/11 10:18:08;;;;;;;5.20;2.70;;;;;;;20.51;46.29;96406.50;4951892;28;21166;-24
2023/12/11 10:20:39;;;;;;;2.77;2.37;;;;;;;20.48;46.31;96409.00;4946775;28;20291;-24
2023/12/11 10:23:16;;;;;;;4.30;2.37;;;;;;;20.47;46.24;96413.25;4944592;28;20211;-26
2023/12/11 10:25:45;;;;;;;3.03;2.10;;;;;;;20.48;46.15;96420.06;4940464;28;20751;-25
2023/12/11 10:28:12;;;;;;;2.77;2.17;;;;;;;20.48;46.19;96412.41;4945295;28;20239;-26
2023/12/11 10:30:55;;;;;;;3.20;2.23;;;;;;;20.49;46.44;96406.47;4947253;29;20614;-24
2023/12/11 10:33:24;;;;;;;2.60;2.40;;;;;;;20.48;46.27;96404.75;4938479;28;20204;-24
2023/12/11 10:35:51;;;;;;;3.00;2.30;;;;;;;20.49;46.19;96388.59;4944360;28;20824;-25
2023/12/11 10:38:25;;;;;;;3.33;2.30;;;;;;;20.49;46.27;96382.66;4941313;28;20259;-24
2023/12/11 10:40:53;;;;;;;3.47;2.40;;;;;;;20.48;46.20;96376.69;4949704;28;20291;-24
2023/12/11 10:43:19;;;;;;;3.30;2.40;;;;;;;20.48;46.19;96369.03;4949665;28;20200;-25
2023/12/11 10:45:46;;;;;;;2.33;1.90;;;;;;;20.48;46.38;96363.91;4954720;28;20291;-25
2023/12/11 10:48:19;;;;;;;3.30;2.23;;;;;;;20.48;46.36;96356.25;4954138;28;20250;-25
2023/12/11 10:50:46;;;;;;;3.10;2.10;;;;;;;20.40;46.34;96341.69;4944096;28;20256;-25
2023/12/11 10:53:12;;;;;;;3.13;2.27;;;;;;;20.48;46.31;96360.50;4925001;29;20228;-25
2023/12/11 10:55:39;;;;;;;3.37;2.27;;;;;;;20.43;46.40;96365.53;4927843;28;20213;-23
2023/12/11 10:58:08;;;;;;;2.87;2.10;;;;;;;20.41;46.42;96361.25;4944981;29;20232;-25
2023/12/11 11:00:35;;;;;;;2.10;1.90;;;;;;;20.39;46.38;96353.56;4929284;28;20633;-25
2023/12/11 11:03:04;;;;;;;2.40;2.13;;;;;;;20.40;46.62;96364.66;4940116;28;20200;-26
2023/12/11 11:05:30;;;;;;;2.10;1.93;;;;;;;20.37;46.58;96365.44;4930877;28;20200;-25
2023/12/11 11:08:08;;;;;;;2.43;1.90;;;;;;;20.38;46.69;96366.31;4927470;29;20534;-23
2023/12/11 11:11:27;;;;;;;2.20;1.90;;;;;;;20.43;46.42;96373.19;4928337;29;20928;-25
2023/12/11 11:14:20;;;;;;;2.03;1.93;;;;;;;20.44;46.48;96376.63;4924345;29;20227;-25
2023/12/11 11:16:57;;;;;;;3.53;2.13;;;;;;;20.44;46.47;96364.72;4918864;29;20304;-23
2023/12/11 11:19:29;;;;;;;3.60;2.20;;;;;;;20.42;46.53;96343.41;4940853;28;20498;-25
2023/12/11 11:21:59;;;;;;;2.10;1.90;;;;;;;20.45;46.61;96356.22;4947684;28;20234;-24
2023/12/11 11:24:34;;;;;;;2.40;1.97;;;;;;;20.46;46.41;96352.81;4948628;28;20201;-23
2023/12/11 11:27:02;;;;;;;2.77;2.10;;;;;;;20.39;46.46;96342.50;4939353;28;20239;-24
2023/12/11 11:29:44;;;;;;;2.10;1.90;;;;;;;20.44;46.50;96354.50;4944094;28;20303;-24
2023/12/11 11:32:11;;;;;;;2.10;1.90;;;;;;;20.46;46.46;96360.47;4945938;28;20688;-24
2023/12/11 11:34:40;;;;;;;2.00;1.80;;;;;;;20.46;46.67;96360.47;4948558;28;20287;-25
2023/12/11 11:37:07;;;;;;;3.53;2.10;;;;;;;20.45;46.52;96356.22;4941794;28;20200;-24